createdAt,value
2019-01-18T00:00:49.735Z,986.20
2019-01-18T00:01:56.633Z,986.12
2019-01-18T00:03:03.401Z,986.22
2019-01-18T00:04:10.193Z,986.17
2019-01-18T00:05:17.001Z,986.16
2019-01-18T00:06:23.885Z,986.16
2019-01-18T00:07:30.713Z,986.13
2019-01-18T00:08:37.467Z,986.16
2019-01-18T00:09:44.243Z,986.16
2019-01-18T00:10:51.034Z,986.18
2019-01-18T00:11:57.764Z,986.16
2019-01-18T00:13:04.496Z,986.13
2019-01-18T00:14:11.260Z,986.09
2019-01-18T00:15:18.001Z,986.16
2019-01-18T00:16:24.801Z,986.20
2019-01-18T00:17:31.538Z,986.25
2019-01-18T00:18:38.311Z,986.17
2019-01-18T00:19:45.086Z,986.12
2019-01-18T00:20:51.812Z,986.15
2019-01-18T00:21:58.606Z,986.12
2019-01-18T00:23:05.412Z,986.21
2019-01-18T00:24:12.208Z,986.19
2019-01-18T00:25:18.977Z,986.19
2019-01-18T00:26:25.727Z,986.27
2019-01-18T00:27:32.448Z,986.20
2019-01-18T00:28:39.190Z,986.28
2019-01-18T00:29:45.992Z,986.22
2019-01-18T00:30:52.723Z,986.28
2019-01-18T00:31:59.520Z,986.30
2019-01-18T00:33:06.368Z,986.28
2019-01-18T00:34:13.151Z,986.25
2019-01-18T00:35:19.886Z,986.31
2019-01-18T00:36:26.735Z,986.20
2019-01-18T00:37:33.481Z,986.36
2019-01-18T00:38:40.258Z,986.35
2019-01-18T00:39:46.994Z,986.44
2019-01-18T00:40:53.721Z,986.37
2019-01-18T00:42:00.455Z,986.39
2019-01-18T00:43:07.211Z,986.41
2019-01-18T00:44:13.984Z,986.47
2019-01-18T00:45:20.746Z,986.44
2019-01-18T00:46:27.475Z,986.44
2019-01-18T00:47:34.225Z,986.44
2019-01-18T00:48:40.940Z,986.41
2019-01-18T00:49:47.762Z,986.46
2019-01-18T00:50:54.501Z,986.38
2019-01-18T00:52:01.200Z,986.40
2019-01-18T00:53:08.050Z,986.48
2019-01-18T00:54:14.817Z,986.54
2019-01-18T00:55:21.548Z,986.45
2019-01-18T00:56:28.322Z,986.44
2019-01-18T00:57:35.067Z,986.52
2019-01-18T00:58:41.823Z,986.50
2019-01-18T00:59:48.563Z,986.53
2019-01-18T01:00:55.276Z,986.44
2019-01-18T01:02:02.023Z,986.48
2019-01-18T01:03:08.853Z,986.48
2019-01-18T01:04:15.583Z,986.48
2019-01-18T01:05:22.389Z,986.52
2019-01-18T01:06:29.515Z,986.50
2019-01-18T01:07:36.352Z,986.45
2019-01-18T01:08:43.243Z,986.54
2019-01-18T01:09:50.185Z,986.62
2019-01-18T01:10:56.983Z,986.63
2019-01-18T01:12:03.751Z,986.52
2019-01-18T01:13:10.591Z,986.58
2019-01-18T01:14:17.395Z,986.59
2019-01-18T01:15:24.141Z,986.59
2019-01-18T01:16:30.877Z,986.61
2019-01-18T01:17:37.633Z,986.60
2019-01-18T01:18:44.712Z,986.64
2019-01-18T01:19:51.559Z,986.62
2019-01-18T01:20:58.276Z,986.63
2019-01-18T01:22:05.024Z,986.69
2019-01-18T01:23:11.933Z,986.61
2019-01-18T01:24:18.761Z,986.64
2019-01-18T01:25:25.582Z,986.70
2019-01-18T01:26:32.340Z,986.65
2019-01-18T01:27:39.084Z,986.72
2019-01-18T01:28:45.934Z,986.75
2019-01-18T01:29:52.672Z,986.78
2019-01-18T01:30:59.380Z,986.76
2019-01-18T01:32:06.196Z,986.80
2019-01-18T01:33:12.937Z,986.82
2019-01-18T01:34:19.728Z,986.82
2019-01-18T01:35:26.476Z,986.75
2019-01-18T01:36:33.224Z,986.78
2019-01-18T01:37:39.940Z,986.90
